sensor_id;sensor_type;location;lat;lon;timestamp;pressure;altitude;pressure_sealevel;temperature;humidity
72038;BME280;59900;50.788;12.904;2023-03-03T00:01:58;97956.44;;;0.04;73.51
72038;BME280;59900;50.788;12.904;2023-03-03T00:04:23;97951.41;;;0.02;75.34
72038;BME280;59900;50.788;12.904;2023-03-03T00:06:48;97950.81;;;-0.02;78.09
72038;BME280;59900;50.788;12.904;2023-03-03T00:09:14;97955.78;;;-0.10;79.13
72038;BME280;59900;50.788;12.904;2023-03-03T00:11:39;97948.59;;;-0.17;78.94
72038;BME280;59900;50.788;12.904;2023-03-03T00:14:17;97950.50;;;-0.19;80.67
72038;BME280;59900;50.788;12.904;2023-03-03T00:16:42;97956.25;;;-0.16;81.56
72038;BME280;59900;50.788;12.904;2023-03-03T00:19:16;97962.69;;;-0.10;82.75
72038;BME280;59900;50.788;12.904;2023-03-03T00:21:45;97959.28;;;-0.11;82.74
72038;BME280;59900;50.788;12.904;2023-03-03T00:26:40;97960.47;;;-0.04;84.86
72038;BME280;59900;50.788;12.904;2023-03-03T00:31:48;97963.97;;;-0.05;85.90
72038;BME280;59900;50.788;12.904;2023-03-03T00:36:42;97969.13;;;-0.05;88.15
72038;BME280;59900;50.788;12.904;2023-03-03T00:39:21;97970.66;;;-0.02;87.03
72038;BME280;59900;50.788;12.904;2023-03-03T00:41:49;97964.31;;;0.02;86.96
72038;BME280;59900;50.788;12.904;2023-03-03T00:45:16;97970.31;;;0.03;87.56
72038;BME280;59900;50.788;12.904;2023-03-03T00:47:28;97972.44;;;0.09;87.49
72038;BME280;59900;50.788;12.904;2023-03-03T00:50:13;97974.78;;;0.12;86.62
72038;BME280;59900;50.788;12.904;2023-03-03T00:52:49;97968.06;;;0.09;86.42
72038;BME280;59900;50.788;12.904;2023-03-03T00:55:17;97964.06;;;0.16;86.43
72038;BME280;59900;50.788;12.904;2023-03-03T00:57:42;97966.50;;;0.18;85.94
72038;BME280;59900;50.788;12.904;2023-03-03T01:00:13;97961.00;;;0.22;86.41
72038;BME280;59900;50.788;12.904;2023-03-03T01:02:39;97965.09;;;0.25;86.48
72038;BME280;59900;50.788;12.904;2023-03-03T01:05:04;97965.09;;;0.25;86.98
72038;BME280;59900;50.788;12.904;2023-03-03T01:07:29;97971.78;;;0.27;86.97
72038;BME280;59900;50.788;12.904;2023-03-03T01:09:55;97963.78;;;0.30;87.03
72038;BME280;59900;50.788;12.904;2023-03-03T01:12:20;97963.09;;;0.28;88.08
72038;BME280;59900;50.788;12.904;2023-03-03T01:14:45;97958.50;;;0.32;87.98
72038;BME280;59900;50.788;12.904;2023-03-03T01:17:13;97960.97;;;0.33;87.97
72038;BME280;59900;50.788;12.904;2023-03-03T01:19:38;97952.13;;;0.36;88.08
72038;BME280;59900;50.788;12.904;2023-03-03T01:22:03;97954.13;;;0.43;87.77
72038;BME280;59900;50.788;12.904;2023-03-03T01:24:29;97944.81;;;0.52;87.54
72038;BME280;59900;50.788;12.904;2023-03-03T01:26:54;97940.94;;;0.46;85.22
72038;BME280;59900;50.788;12.904;2023-03-03T01:29:19;97951.28;;;0.46;84.58
72038;BME280;59900;50.788;12.904;2023-03-03T01:31:44;97949.25;;;0.50;83.95
72038;BME280;59900;50.788;12.904;2023-03-03T01:34:10;97950.09;;;0.50;83.86
72038;BME280;59900;50.788;12.904;2023-03-03T01:36:35;97956.31;;;0.48;84.01
72038;BME280;59900;50.788;12.904;2023-03-03T01:39:02;97959.34;;;0.53;84.16
72038;BME280;59900;50.788;12.904;2023-03-03T01:41:29;97958.41;;;0.54;84.56
72038;BME280;59900;50.788;12.904;2023-03-03T01:43:57;97952.44;;;0.53;85.26
72038;BME280;59900;50.788;12.904;2023-03-03T01:46:30;97961.94;;;0.53;86.23
72038;BME280;59900;50.788;12.904;2023-03-03T01:49:01;97955.84;;;0.54;86.49
72038;BME280;59900;50.788;12.904;2023-03-03T01:51:30;97950.91;;;0.51;87.10
72038;BME280;59900;50.788;12.904;2023-03-03T01:54:05;97950.31;;;0.47;87.94
72038;BME280;59900;50.788;12.904;2023-03-03T01:56:33;97939.44;;;0.33;89.16
72038;BME280;59900;50.788;12.904;2023-03-03T01:59:13;97951.81;;;0.29;89.23
72038;BME280;59900;50.788;12.904;2023-03-03T02:01:40;97948.03;;;0.33;89.27
72038;BME280;59900;50.788;12.904;2023-03-03T02:04:06;97951.78;;;0.40;89.57
72038;BME280;59900;50.788;12.904;2023-03-03T02:06:41;97962.56;;;0.45;89.52
72038;BME280;59900;50.788;12.904;2023-03-03T02:09:14;97965.06;;;0.36;90.73
72038;BME280;59900;50.788;12.904;2023-03-03T02:11:43;97965.88;;;0.36;91.05
72038;BME280;59900;50.788;12.904;2023-03-03T02:14:10;97973.28;;;0.30;91.16
72038;BME280;59900;50.788;12.904;2023-03-03T02:16:35;97969.09;;;0.29;91.30
72038;BME280;59900;50.788;12.904;2023-03-03T02:19:01;97969.91;;;0.29;91.24
72038;BME280;59900;50.788;12.904;2023-03-03T02:21:27;97957.47;;;0.23;91.46
72038;BME280;59900;50.788;12.904;2023-03-03T02:24:15;97956.41;;;0.26;91.79
72038;BME280;59900;50.788;12.904;2023-03-03T02:26:43;97955.44;;;0.27;91.64
72038;BME280;59900;50.788;12.904;2023-03-03T02:29:09;97954.16;;;0.21;91.56
72038;BME280;59900;50.788;12.904;2023-03-03T02:31:35;97945.59;;;0.21;91.76
72038;BME280;59900;50.788;12.904;2023-03-03T02:34:01;97944.56;;;0.23;92.26
72038;BME280;59900;50.788;12.904;2023-03-03T02:36:29;97938.06;;;0.29;92.53
72038;BME280;59900;50.788;12.904;2023-03-03T02:39:12;97930.91;;;0.32;92.45
72038;BME280;59900;50.788;12.904;2023-03-03T02:42:01;97928.44;;;0.31;92.38
72038;BME280;59900;50.788;12.904;2023-03-03T02:44:29;97929.94;;;0.33;92.90
72038;BME280;59900;50.788;12.904;2023-03-03T02:46:56;97928.56;;;0.29;92.35
72038;BME280;59900;50.788;12.904;2023-03-03T02:49:32;97931.63;;;0.23;92.27
72038;BME280;59900;50.788;12.904;2023-03-03T02:51:59;97940.41;;;0.21;92.12
72038;BME280;59900;50.788;12.904;2023-03-03T02:54:26;97941.50;;;0.18;92.09
72038;BME280;59900;50.788;12.904;2023-03-03T02:56:52;97946.09;;;0.15;92.61
72038;BME280;59900;50.788;12.904;2023-03-03T02:59:18;97948.69;;;0.15;93.13
72038;BME280;59900;50.788;12.904;2023-03-03T03:01:44;97944.25;;;0.06;92.99
72038;BME280;59900;50.788;12.904;2023-03-03T03:04:15;97946.81;;;-0.06;93.27
72038;BME280;59900;50.788;12.904;2023-03-03T03:06:41;97948.03;;;-0.10;93.67
72038;BME280;59900;50.788;12.904;2023-03-03T03:09:08;97955.19;;;-0.13;93.94
72038;BME280;59900;50.788;12.904;2023-03-03T03:11:34;97949.56;;;-0.18;94.02
72038;BME280;59900;50.788;12.904;2023-03-03T03:14:00;97943.59;;;-0.30;94.57
72038;BME280;59900;50.788;12.904;2023-03-03T03:16:25;97946.88;;;-0.39;94.45
72038;BME280;59900;50.788;12.904;2023-03-03T03:18:51;97950.63;;;-0.43;94.57
72038;BME280;59900;50.788;12.904;2023-03-03T03:21:16;97950.16;;;-0.48;94.45
72038;BME280;59900;50.788;12.904;2023-03-03T03:23:42;97954.13;;;-0.55;94.77
72038;BME280;59900;50.788;12.904;2023-03-03T03:26:08;97952.84;;;-0.49;94.98
72038;BME280;59900;50.788;12.904;2023-03-03T03:28:34;97959.06;;;-0.41;95.05
72038;BME280;59900;50.788;12.904;2023-03-03T03:30:59;97960.00;;;-0.42;94.61
72038;BME280;59900;50.788;12.904;2023-03-03T03:33:24;97956.72;;;-0.44;94.99
72038;BME280;59900;50.788;12.904;2023-03-03T03:35:52;97958.50;;;-0.44;94.95
72038;BME280;59900;50.788;12.904;2023-03-03T03:38:19;97965.19;;;-0.53;94.69
72038;BME280;59900;50.788;12.904;2023-03-03T03:40:45;97963.63;;;-0.67;94.36
72038;BME280;59900;50.788;12.904;2023-03-03T03:43:10;97961.78;;;-0.65;94.75
72038;BME280;59900;50.788;12.904;2023-03-03T03:45:35;97968.91;;;-0.68;94.44
72038;BME280;59900;50.788;12.904;2023-03-03T03:48:00;97965.50;;;-0.80;95.25
72038;BME280;59900;50.788;12.904;2023-03-03T03:50:26;97962.31;;;-0.94;96.00
72038;BME280;59900;50.788;12.904;2023-03-03T03:52:51;97962.53;;;-0.97;96.88
72038;BME280;59900;50.788;12.904;2023-03-03T03:55:16;97964.03;;;-1.06;96.64
72038;BME280;59900;50.788;12.904;2023-03-03T03:57:42;97969.19;;;-1.06;97.04
72038;BME280;59900;50.788;12.904;2023-03-03T04:00:08;97959.59;;;-1.04;96.67
72038;BME280;59900;50.788;12.904;2023-03-03T04:02:35;97963.22;;;-0.95;96.88
72038;BME280;59900;50.788;12.904;2023-03-03T04:05:00;97958.69;;;-0.92;96.64
72038;BME280;59900;50.788;12.904;2023-03-03T04:07:25;97964.06;;;-0.84;96.25
72038;BME280;59900;50.788;12.904;2023-03-03T04:09:51;97965.13;;;-0.75;96.13
72038;BME280;59900;50.788;12.904;2023-03-03T04:12:16;97964.81;;;-0.71;96.09
72038;BME280;59900;50.788;12.904;2023-03-03T04:14:41;97961.88;;;-0.66;95.48
72038;BME280;59900;50.788;12.904;2023-03-03T04:17:07;97961.41;;;-0.71;95.00
72038;BME280;59900;50.788;12.904;2023-03-03T04:19:32;97959.44;;;-0.68;95.18
72038;BME280;59900;50.788;12.904;2023-03-03T04:21:57;97962.81;;;-0.67;95.18
72038;BME280;59900;50.788;12.904;2023-03-03T04:24:22;97962.56;;;-0.64;94.72
72038;BME280;59900;50.788;12.904;2023-03-03T04:26:48;97964.00;;;-0.60;94.57
72038;BME280;59900;50.788;12.904;2023-03-03T04:29:13;97972.56;;;-0.60;94.31
72038;BME280;59900;50.788;12.904;2023-03-03T04:31:38;97962.69;;;-0.54;94.16
72038;BME280;59900;50.788;12.904;2023-03-03T04:34:04;97975.97;;;-0.48;93.95
72038;BME280;59900;50.788;12.904;2023-03-03T04:36:29;97981.81;;;-0.46;94.03
72038;BME280;59900;50.788;12.904;2023-03-03T04:38:54;97981.59;;;-0.43;94.04
72038;BME280;59900;50.788;12.904;2023-03-03T04:41:20;97977.72;;;-0.37;93.97
72038;BME280;59900;50.788;12.904;2023-03-03T04:43:45;97978.78;;;-0.40;93.58
72038;BME280;59900;50.788;12.904;2023-03-03T04:46:10;97978.41;;;-0.46;93.50
72038;BME280;59900;50.788;12.904;2023-03-03T04:48:36;97986.41;;;-0.49;93.62
72038;BME280;59900;50.788;12.904;2023-03-03T04:51:02;97988.16;;;-0.61;93.65
72038;BME280;59900;50.788;12.904;2023-03-03T04:53:27;97988.28;;;-0.63;93.98
72038;BME280;59900;50.788;12.904;2023-03-03T04:55:53;97987.31;;;-0.73;94.50
72038;BME280;59900;50.788;12.904;2023-03-03T04:58:19;97993.38;;;-0.85;94.98
72038;BME280;59900;50.788;12.904;2023-03-03T05:00:53;97992.59;;;-0.85;95.33
72038;BME280;59900;50.788;12.904;2023-03-03T05:03:18;97998.81;;;-0.77;95.07
72038;BME280;59900;50.788;12.904;2023-03-03T05:05:46;97998.47;;;-0.72;95.15
72038;BME280;59900;50.788;12.904;2023-03-03T05:08:11;98001.97;;;-0.73;95.27
72038;BME280;59900;50.788;12.904;2023-03-03T05:10:37;97994.94;;;-0.82;95.04
72038;BME280;59900;50.788;12.904;2023-03-03T05:13:02;97997.16;;;-0.89;95.98
72038;BME280;59900;50.788;12.904;2023-03-03T05:15:28;97995.63;;;-0.91;96.28
72038;BME280;59900;50.788;12.904;2023-03-03T05:17:54;98003.59;;;-0.94;96.85
72038;BME280;59900;50.788;12.904;2023-03-03T05:20:20;98017.53;;;-0.97;97.46
72038;BME280;59900;50.788;12.904;2023-03-03T05:22:45;98017.19;;;-0.92;97.28
72038;BME280;59900;50.788;12.904;2023-03-03T05:25:11;98024.09;;;-0.93;97.12
72038;BME280;59900;50.788;12.904;2023-03-03T05:27:37;98031.59;;;-0.90;97.32
72038;BME280;59900;50.788;12.904;2023-03-03T05:30:03;98037.69;;;-0.91;97.49
72038;BME280;59900;50.788;12.904;2023-03-03T05:32:28;98035.59;;;-0.97;97.02
72038;BME280;59900;50.788;12.904;2023-03-03T05:34:54;98040.22;;;-1.02;97.20
72038;BME280;59900;50.788;12.904;2023-03-03T05:37:19;98031.41;;;-1.10;97.38
72038;BME280;59900;50.788;12.904;2023-03-03T05:39:44;98030.81;;;-1.14;97.50
72038;BME280;59900;50.788;12.904;2023-03-03T05:42:11;98034.34;;;-1.15;98.02
72038;BME280;59900;50.788;12.904;2023-03-03T05:44:37;98041.47;;;-1.19;98.02
72038;BME280;59900;50.788;12.904;2023-03-03T05:47:02;98036.75;;;-1.25;97.79
72038;BME280;59900;50.788;12.904;2023-03-03T05:49:27;98047.06;;;-1.25;98.70
72038;BME280;59900;50.788;12.904;2023-03-03T05:51:53;98043.38;;;-1.33;98.72
72038;BME280;59900;50.788;12.904;2023-03-03T05:54:18;98041.28;;;-1.28;99.20
72038;BME280;59900;50.788;12.904;2023-03-03T05:56:43;98031.59;;;-1.25;99.04
72038;BME280;59900;50.788;12.904;2023-03-03T05:59:08;98033.81;;;-1.20;99.21
72038;BME280;59900;50.788;12.904;2023-03-03T06:01:33;98038.66;;;-1.16;99.02
72038;BME280;59900;50.788;12.904;2023-03-03T06:03:59;98041.25;;;-1.16;98.87
72038;BME280;59900;50.788;12.904;2023-03-03T06:06:24;98033.94;;;-1.22;98.52
72038;BME280;59900;50.788;12.904;2023-03-03T06:08:49;98030.31;;;-1.19;99.19
72038;BME280;59900;50.788;12.904;2023-03-03T06:11:15;98036.91;;;-1.15;98.68
72038;BME280;59900;50.788;12.904;2023-03-03T06:13:42;98028.00;;;-1.11;98.41
72038;BME280;59900;50.788;12.904;2023-03-03T06:16:07;98034.25;;;-1.02;98.35
72038;BME280;59900;50.788;12.904;2023-03-03T06:18:33;98038.16;;;-0.97;98.28
72038;BME280;59900;50.788;12.904;2023-03-03T06:20:58;98044.63;;;-0.91;98.32
72038;BME280;59900;50.788;12.904;2023-03-03T06:23:23;98049.88;;;-0.93;97.39
72038;BME280;59900;50.788;12.904;2023-03-03T06:25:48;98048.97;;;-0.92;97.46
72038;BME280;59900;50.788;12.904;2023-03-03T06:28:14;98045.56;;;-0.92;97.39
72038;BME280;59900;50.788;12.904;2023-03-03T06:30:39;98047.69;;;-0.86;97.45
72038;BME280;59900;50.788;12.904;2023-03-03T06:33:05;98055.06;;;-0.82;97.15
72038;BME280;59900;50.788;12.904;2023-03-03T06:35:30;98054.84;;;-0.79;97.15
72038;BME280;59900;50.788;12.904;2023-03-03T06:37:55;98055.59;;;-0.77;96.88
72038;BME280;59900;50.788;12.904;2023-03-03T06:40:20;98052.78;;;-0.74;96.92
72038;BME280;59900;50.788;12.904;2023-03-03T06:42:46;98052.41;;;-0.69;96.29
72038;BME280;59900;50.788;12.904;2023-03-03T06:45:11;98040.00;;;-0.64;96.44
72038;BME280;59900;50.788;12.904;2023-03-03T06:47:37;98036.63;;;-0.65;95.99
72038;BME280;59900;50.788;12.904;2023-03-03T06:50:02;98036.47;;;-0.63;95.34
72038;BME280;59900;50.788;12.904;2023-03-03T06:52:28;98046.44;;;-0.59;95.00
72038;BME280;59900;50.788;12.904;2023-03-03T06:54:56;98044.47;;;-0.55;95.05
72038;BME280;59900;50.788;12.904;2023-03-03T06:57:26;98048.47;;;-0.51;94.62
72038;BME280;59900;50.788;12.904;2023-03-03T06:59:56;98047.28;;;-0.47;94.43
72038;BME280;59900;50.788;12.904;2023-03-03T07:02:21;98041.09;;;-0.44;94.09
72038;BME280;59900;50.788;12.904;2023-03-03T07:04:47;98036.50;;;-0.41;93.65
72038;BME280;59900;50.788;12.904;2023-03-03T07:07:18;98039.44;;;-0.45;94.03
72038;BME280;59900;50.788;12.904;2023-03-03T07:09:46;98043.78;;;-0.46;94.16
72038;BME280;59900;50.788;12.904;2023-03-03T07:12:23;98051.06;;;-0.51;94.14
72038;BME280;59900;50.788;12.904;2023-03-03T07:15:01;98051.88;;;-0.50;94.58
72038;BME280;59900;50.788;12.904;2023-03-03T07:17:40;98052.34;;;-0.57;94.60
72038;BME280;59900;50.788;12.904;2023-03-03T07:20:21;98056.91;;;-0.60;94.96
72038;BME280;59900;50.788;12.904;2023-03-03T07:22:47;98058.66;;;-0.61;95.16
72038;BME280;59900;50.788;12.904;2023-03-03T07:25:30;98064.53;;;-0.59;95.27
72038;BME280;59900;50.788;12.904;2023-03-03T07:28:06;98062.53;;;-0.55;94.64
72038;BME280;59900;50.788;12.904;2023-03-03T07:30:36;98070.88;;;-0.51;94.17
72038;BME280;59900;50.788;12.904;2023-03-03T07:33:01;98075.59;;;-0.45;94.31
72038;BME280;59900;50.788;12.904;2023-03-03T07:35:38;98072.66;;;-0.41;94.09
72038;BME280;59900;50.788;12.904;2023-03-03T07:40:51;98081.13;;;-0.39;93.72
72038;BME280;59900;50.788;12.904;2023-03-03T07:43:33;98098.38;;;-0.39;93.78
72038;BME280;59900;50.788;12.904;2023-03-03T07:46:24;98108.09;;;-0.43;93.57
72038;BME280;59900;50.788;12.904;2023-03-03T07:48:51;98102.34;;;-0.46;93.63
72038;BME280;59900;50.788;12.904;2023-03-03T07:51:23;98109.16;;;-0.45;93.73
72038;BME280;59900;50.788;12.904;2023-03-03T07:53:50;98112.41;;;-0.54;94.05
72038;BME280;59900;50.788;12.904;2023-03-03T07:56:29;98108.41;;;-0.59;94.46
72038;BME280;59900;50.788;12.904;2023-03-03T07:58:58;98109.44;;;-0.61;94.82
72038;BME280;59900;50.788;12.904;2023-03-03T08:01:39;98112.03;;;-0.61;94.75
72038;BME280;59900;50.788;12.904;2023-03-03T08:04:38;98107.38;;;-0.56;94.55
72038;BME280;59900;50.788;12.904;2023-03-03T08:07:10;98103.13;;;-0.57;94.66
72038;BME280;59900;50.788;12.904;2023-03-03T08:12:29;98105.03;;;-0.48;93.94
72038;BME280;59900;50.788;12.904;2023-03-03T08:14:57;98109.84;;;-0.43;94.06
72038;BME280;59900;50.788;12.904;2023-03-03T08:17:35;98113.16;;;-0.41;93.75
72038;BME280;59900;50.788;12.904;2023-03-03T08:22:53;98115.75;;;-0.41;93.67
72038;BME280;59900;50.788;12.904;2023-03-03T08:25:19;98114.91;;;-0.42;93.45
72038;BME280;59900;50.788;12.904;2023-03-03T08:27:44;98115.53;;;-0.38;93.99
72038;BME280;59900;50.788;12.904;2023-03-03T08:30:10;98111.38;;;-0.41;93.47
72038;BME280;59900;50.788;12.904;2023-03-03T08:32:35;98115.16;;;-0.45;93.78
72038;BME280;59900;50.788;12.904;2023-03-03T08:35:00;98104.38;;;-0.39;93.69
72038;BME280;59900;50.788;12.904;2023-03-03T08:37:26;98106.50;;;-0.33;94.11
72038;BME280;59900;50.788;12.904;2023-03-03T08:39:51;98107.19;;;-0.31;93.59
72038;BME280;59900;50.788;12.904;2023-03-03T08:42:16;98120.81;;;-0.29;93.42
72038;BME280;59900;50.788;12.904;2023-03-03T08:44:42;98108.13;;;-0.32;93.17
72038;BME280;59900;50.788;12.904;2023-03-03T08:47:07;98116.81;;;-0.33;93.06
72038;BME280;59900;50.788;12.904;2023-03-03T08:49:32;98118.22;;;-0.29;93.15
72038;BME280;59900;50.788;12.904;2023-03-03T08:51:58;98112.13;;;-0.28;93.59
72038;BME280;59900;50.788;12.904;2023-03-03T08:54:24;98118.50;;;-0.21;93.90
72038;BME280;59900;50.788;12.904;2023-03-03T08:56:50;98114.72;;;-0.17;93.58
72038;BME280;59900;50.788;12.904;2023-03-03T08:59:15;98119.06;;;-0.17;93.46
72038;BME280;59900;50.788;12.904;2023-03-03T09:01:41;98126.47;;;-0.13;93.60
72038;BME280;59900;50.788;12.904;2023-03-03T09:04:08;98128.69;;;-0.19;93.43
72038;BME280;59900;50.788;12.904;2023-03-03T09:06:33;98125.28;;;-0.20;94.17
72038;BME280;59900;50.788;12.904;2023-03-03T09:08:59;98121.66;;;-0.17;94.12
72038;BME280;59900;50.788;12.904;2023-03-03T09:11:26;98130.91;;;-0.15;94.31
72038;BME280;59900;50.788;12.904;2023-03-03T09:14:05;98126.47;;;-0.13;94.25
72038;BME280;59900;50.788;12.904;2023-03-03T09:16:36;98123.16;;;-0.15;94.03
72038;BME280;59900;50.788;12.904;2023-03-03T09:19:15;98122.94;;;-0.23;94.65
72038;BME280;59900;50.788;12.904;2023-03-03T09:21:42;98119.53;;;-0.23;94.63
72038;BME280;59900;50.788;12.904;2023-03-03T09:24:17;98126.25;;;-0.21;95.06
72038;BME280;59900;50.788;12.904;2023-03-03T09:26:47;98133.38;;;-0.24;94.68
72038;BME280;59900;50.788;12.904;2023-03-03T09:31:47;98134.22;;;-0.24;95.42
72038;BME280;59900;50.788;12.904;2023-03-03T09:34:18;98129.16;;;-0.14;95.50
72038;BME280;59900;50.788;12.904;2023-03-03T09:36:44;98134.09;;;-0.11;95.15
72038;BME280;59900;50.788;12.904;2023-03-03T09:39:17;98130.69;;;-0.12;95.04
72038;BME280;59900;50.788;12.904;2023-03-03T09:44:43;98146.41;;;-0.15;95.14
72038;BME280;59900;50.788;12.904;2023-03-03T10:04:16;98141.28;;;-0.04;93.22
72038;BME280;59900;50.788;12.904;2023-03-03T10:06:53;98148.09;;;-0.03;92.43
72038;BME280;59900;50.788;12.904;2023-03-03T10:12:27;98150.34;;;0.02;92.77
72038;BME280;59900;50.788;12.904;2023-03-03T10:15:15;98152.47;;;-0.03;92.97
72038;BME280;59900;50.788;12.904;2023-03-03T10:17:59;98146.56;;;0.06;92.60
72038;BME280;59900;50.788;12.904;2023-03-03T10:20:42;98158.00;;;0.15;92.38
72038;BME280;59900;50.788;12.904;2023-03-03T10:31:49;98158.00;;;0.15;90.52
72038;BME280;59900;50.788;12.904;2023-03-03T10:34:22;98155.38;;;0.04;90.86
72038;BME280;59900;50.788;12.904;2023-03-03T10:37:03;98154.69;;;0.02;90.84
72038;BME280;59900;50.788;12.904;2023-03-03T10:39:47;98153.38;;;-0.04;90.38
72038;BME280;59900;50.788;12.904;2023-03-03T10:42:29;98154.44;;;-0.07;91.17
72038;BME280;59900;50.788;12.904;2023-03-03T10:45:12;98151.97;;;0.03;91.16
72038;BME280;59900;50.788;12.904;2023-03-03T10:48:05;98156.34;;;0.14;90.43
72038;BME280;59900;50.788;12.904;2023-03-03T10:50:57;98151.63;;;0.08;90.35
72038;BME280;59900;50.788;12.904;2023-03-03T10:56:48;98162.06;;;-0.05;90.84
72038;BME280;59900;50.788;12.904;2023-03-03T11:00:05;98164.88;;;-0.08;91.14
72038;BME280;59900;50.788;12.904;2023-03-03T11:02:45;98174.81;;;-0.15;91.39
72038;BME280;59900;50.788;12.904;2023-03-03T11:05:28;98172.63;;;-0.08;91.38
72038;BME280;59900;50.788;12.904;2023-03-03T11:08:02;98174.03;;;-0.15;91.62
72038;BME280;59900;50.788;12.904;2023-03-03T11:10:53;98171.69;;;-0.07;91.71
72038;BME280;59900;50.788;12.904;2023-03-03T11:13:30;98168.28;;;-0.08;91.62
72038;BME280;59900;50.788;12.904;2023-03-03T11:16:21;98163.72;;;-0.04;91.40
72038;BME280;59900;50.788;12.904;2023-03-03T11:27:24;98160.81;;;0.12;90.83
72038;BME280;59900;50.788;12.904;2023-03-03T11:30:45;98163.63;;;0.20;90.58
72038;BME280;59900;50.788;12.904;2023-03-03T11:32:55;98157.88;;;0.16;90.58
72038;BME280;59900;50.788;12.904;2023-03-03T11:35:37;98161.97;;;0.19;89.88
72038;BME280;59900;50.788;12.904;2023-03-03T11:38:27;98161.38;;;0.04;90.57
72038;BME280;59900;50.788;12.904;2023-03-03T11:41:03;98160.00;;;0.11;90.38
72038;BME280;59900;50.788;12.904;2023-03-03T11:43:46;98159.84;;;0.13;90.09
72038;BME280;59900;50.788;12.904;2023-03-03T11:49:23;98151.88;;;0.05;89.41
72038;BME280;59900;50.788;12.904;2023-03-03T11:52:51;98151.16;;;0.03;88.99
72038;BME280;59900;50.788;12.904;2023-03-03T11:55:15;98150.47;;;0.12;88.98
72038;BME280;59900;50.788;12.904;2023-03-03T11:57:57;98148.13;;;0.20;88.75
72038;BME280;59900;50.788;12.904;2023-03-03T12:00:36;98137.78;;;0.20;89.22
72038;BME280;59900;50.788;12.904;2023-03-03T12:09:02;98132.84;;;0.17;90.01
72038;BME280;59900;50.788;12.904;2023-03-03T12:11:43;98143.88;;;0.08;90.25
72038;BME280;59900;50.788;12.904;2023-03-03T12:14:35;98134.84;;;0.02;90.65
72038;BME280;59900;50.788;12.904;2023-03-03T12:17:28;98131.66;;;0.10;90.44
72038;BME280;59900;50.788;12.904;2023-03-03T12:22:51;98129.69;;;0.02;91.89
72038;BME280;59900;50.788;12.904;2023-03-03T12:28:13;98124.97;;;0.07;90.15
72038;BME280;59900;50.788;12.904;2023-03-03T12:30:59;98138.03;;;0.06;90.13
72038;BME280;59900;50.788;12.904;2023-03-03T12:33:50;98142.22;;;0.07;90.26
72038;BME280;59900;50.788;12.904;2023-03-03T12:39:17;98138.72;;;-0.04;90.16
72038;BME280;59900;50.788;12.904;2023-03-03T12:41:59;98143.16;;;-0.06;90.56
72038;BME280;59900;50.788;12.904;2023-03-03T12:44:39;98140.09;;;0.00;90.76
72038;BME280;59900;50.788;12.904;2023-03-03T12:47:26;98136.72;;;0.00;90.76
72038;BME280;59900;50.788;12.904;2023-03-03T12:52:45;98128.84;;;-0.10;90.13
72038;BME280;59900;50.788;12.904;2023-03-03T12:55:32;98127.88;;;-0.20;90.18
72038;BME280;59900;50.788;12.904;2023-03-03T12:58:12;98132.78;;;-0.28;90.80
72038;BME280;59900;50.788;12.904;2023-03-03T13:00:58;98126.56;;;-0.25;91.05
72038;BME280;59900;50.788;12.904;2023-03-03T13:03:52;98129.97;;;-0.36;91.05
72038;BME280;59900;50.788;12.904;2023-03-03T13:07:04;98119.53;;;-0.23;90.67
72038;BME280;59900;50.788;12.904;2023-03-03T13:12:44;98109.19;;;-0.23;90.19
72038;BME280;59900;50.788;12.904;2023-03-03T13:15:27;98108.50;;;-0.14;90.22
72038;BME280;59900;50.788;12.904;2023-03-03T13:20:44;98112.81;;;-0.26;91.50
72038;BME280;59900;50.788;12.904;2023-03-03T13:23:59;98102.94;;;-0.32;91.82
72038;BME280;59900;50.788;12.904;2023-03-03T13:26:36;98109.06;;;-0.33;91.76
72038;BME280;59900;50.788;12.904;2023-03-03T13:29:14;98105.31;;;-0.29;91.16
72038;BME280;59900;50.788;12.904;2023-03-03T13:31:47;98106.97;;;-0.28;90.77
72038;BME280;59900;50.788;12.904;2023-03-03T13:34:24;98098.53;;;-0.19;90.67
72038;BME280;59900;50.788;12.904;2023-03-03T13:39:54;98104.75;;;-0.21;90.61
72038;BME280;59900;50.788;12.904;2023-03-03T13:42:37;98103.31;;;-0.25;90.86
72038;BME280;59900;50.788;12.904;2023-03-03T13:45:35;98106.97;;;-0.28;90.68
72038;BME280;59900;50.788;12.904;2023-03-03T13:50:57;98116.81;;;-0.33;90.07
72038;BME280;59900;50.788;12.904;2023-03-03T13:53:33;98111.66;;;-0.33;90.92
72038;BME280;59900;50.788;12.904;2023-03-03T13:56:28;98126.41;;;-0.35;90.21
72038;BME280;59900;50.788;12.904;2023-03-03T13:59:09;98132.41;;;-0.34;90.70
72038;BME280;59900;50.788;12.904;2023-03-03T14:01:56;98128.19;;;-0.35;91.06
72038;BME280;59900;50.788;12.904;2023-03-03T14:07:38;98114.69;;;-0.39;91.41
72038;BME280;59900;50.788;12.904;2023-03-03T14:10:11;98105.53;;;-0.43;91.67
72038;BME280;59900;50.788;12.904;2023-03-03T14:12:46;98108.31;;;-0.46;91.32
72038;BME280;59900;50.788;12.904;2023-03-03T14:15:27;98104.22;;;-0.48;91.14
72038;BME280;59900;50.788;12.904;2023-03-03T14:20:50;98106.31;;;-0.53;90.22
72038;BME280;59900;50.788;12.904;2023-03-03T14:23:30;98103.97;;;-0.57;90.43
72038;BME280;59900;50.788;12.904;2023-03-03T14:28:29;98094.94;;;-0.51;90.13
72038;BME280;59900;50.788;12.904;2023-03-03T14:31:14;98101.88;;;-0.51;89.84
72038;BME280;59900;50.788;12.904;2023-03-03T14:33:43;98091.88;;;-0.56;90.30
72038;BME280;59900;50.788;12.904;2023-03-03T14:36:11;98086.59;;;-0.54;89.47
72038;BME280;59900;50.788;12.904;2023-03-03T14:38:39;98086.72;;;-0.56;89.41
72038;BME280;59900;50.788;12.904;2023-03-03T14:43:45;98093.66;;;-0.45;88.46
72038;BME280;59900;50.788;12.904;2023-03-03T14:46:33;98099.66;;;-0.34;88.88
72038;BME280;59900;50.788;12.904;2023-03-03T14:49:06;98092.53;;;-0.30;87.57
72038;BME280;59900;50.788;12.904;2023-03-03T14:51:42;98099.09;;;-0.26;87.35
72038;BME280;59900;50.788;12.904;2023-03-03T14:54:15;98084.66;;;-0.29;87.46
72038;BME280;59900;50.788;12.904;2023-03-03T14:57:16;98075.50;;;-0.33;87.69
72038;BME280;59900;50.788;12.904;2023-03-03T15:00:02;98075.00;;;-0.38;87.64
72038;BME280;59900;50.788;12.904;2023-03-03T15:02:35;98063.59;;;-0.46;88.02